Terminal Aerodrome Forecast
Issued by NWS Upton, NY

Home | Current Version | Previous Version | Text Only | Print | Product List | Glossary On
Versions: 1 2 3 4 5 6 7 8 9 10 11 12 13 14 15 16 17 18 19 20 21 22 23 24 25 26 27 28 29 30 31 32 33
509
FTUS41 KOKX 241325 AAA
TAFISP
TAF AMD
KISP 241325Z 2413/2512 02005KT 4SM -SHRA BR BKN025
      TEMPO 2413/2415 BKN007
     FM241600 VRB04KT P6SM VCSH BKN035
     FM241900 18005KT P6SM VCSH FEW035 BKN070
     FM250000 25004KT P6SM SCT120=

USA.gov is the U.S. government's official web portal to all federal, state and local government web resources and services.